tom61.com alexa rank chart, tom61.com alexa rank daily changes

tom61.com alexa rank chart, tom61.com alexa rank daily changes

tom61.com
Actual rank:
102 742

RANK HISTORY

Date Rank Diff
2018/01/16 102 742 -124
2018/01/15 102 866 -3 031
2018/01/14 105 897 +2 295
2018/01/13 103 602 -41
2018/01/12 103 643 +3 412
2018/01/11 100 231 -6 741
2018/01/10 106 972 -5 678
2018/01/09 112 650 -373
2018/01/08 113 023 -1 715
2018/01/07 114 738 +3 261
2018/01/06 111 477 +2 783
2018/01/05 108 694 -5 410
2018/01/04 114 104 -13 165
2018/01/03 127 269 -655
2018/01/02 127 924 -739
2018/01/01 128 663 -2 508
2017/12/31 131 171 +1
2017/12/30 131 170 -4 203
2017/12/29 135 373 -8 678
2017/12/28 144 051 -21 097
2017/12/27 165 148 +396
2017/12/26 164 752 -15 282
2017/12/25 180 034 -105
2017/12/24 180 139 +34
2017/12/23 180 105 -9 383
2017/12/22 189 488 +20 921
2017/12/21 168 567 +9 494
2017/12/20 159 073 +10 877
2017/12/19 148 196 -6 642
2017/12/18 154 838 +4 626
2017/12/17 150 212 -336
2017/12/16 150 548 +19 027
2017/12/15 131 521 +3 305
2017/12/14 128 216 +10 463
2017/12/13 117 753 +12 627
2017/12/12 105 126 -3 623
2017/12/11 108 749 +4 934
2017/12/10 103 815 -248
2017/12/09 104 063 -175
2017/12/08 104 238 -2 863
2017/12/07 107 101 -2 468
2017/12/06 109 569 -2 843
2017/12/05 112 412 +6 201
2017/12/04 106 211 -379
2017/12/03 106 590 +358
2017/12/02 106 232 +230
2017/12/01 106 002 +193
2017/11/30 105 809 +3 019
2017/11/29 102 790 +441
2017/11/28 102 349 -89
2017/11/27 102 438 -3 172
2017/11/26 105 610 +3 048
2017/11/25 102 562 +9 669
2017/11/24 92 893 +378
2017/11/23 92 515 +271
2017/11/22 92 244 -10 536
2017/11/21 102 780 -6 240
2017/11/20 109 020 -5 199
2017/11/19 114 219 +2 723
2017/11/18 111 496 +3 178
2017/11/17 108 318

WIDGET FOR YOUR SITE

DOMAINS WITH THE NEAREST RANK

Domain Rank
varunamultimedia.xyz 102 737
instar-informatika.hr 102 738
testerkorea.com 102 739
hispeed.ch 102 740
sex-porno-foto.net 102 741
tom61.com 102 742
zhemezhai.com 102 743
infinitus.com.cn 102 744
thespinoff.co.nz 102 745
spreadtrum.com 102 746
ramen-koizumi.com 102 747

DOMAINS WITH THE NEAREST RANK BY TLD .com

Domain Rank
brightstorm.com 102 727
craftflightup.com 102 731
kingsraidforum.com 102 735
photofocus.com 102 736
testerkorea.com 102 739
tom61.com 102 742
zhemezhai.com 102 743
spreadtrum.com 102 746
ramen-koizumi.com 102 747
stargist.com 102 748
weregeek.com 102 752